Time,TemperatureF,DewpointF,PressureIn,WindDirection,WindDirectionDegrees,WindSpeedMPH,WindSpeedGustMPH,Humidity,HourlyPrecipIn,Conditions,Clouds,dailyrainin,SoftwareType,DateUTC
2013-09-03 00:03:00,61.6,58.6,29.93,WNW,287,0.0,0.0,90,0.00,,,0.00,Wunderground v.1.15,2013-09-03 05:03:00,
2013-09-03 00:09:00,61.6,58.6,29.93,NE,45,1.0,3.0,90,0.00,,,0.00,Wunderground v.1.15,2013-09-03 05:09:00,
2013-09-03 00:14:00,61.8,58.8,29.93,NE,52,3.0,4.0,90,0.00,,,0.00,Wunderground v.1.15,2013-09-03 05:14:00,
2013-09-03 00:21:00,61.8,58.8,29.93,WSW,251,2.0,2.0,90,0.00,,,0.00,Wunderground v.1.15,2013-09-03 05:21:00,
2013-09-03 00:26:00,61.6,58.6,29.93,NE,45,1.0,2.0,90,0.00,,,0.00,Wunderground v.1.15,2013-09-03 05:26:00,
2013-09-03 00:32:00,61.6,58.6,29.93,NE,54,2.0,2.0,90,0.00,,,0.00,Wunderground v.1.15,2013-09-03 05:32:00,
2013-09-03 00:38:00,61.4,58.4,29.93,NE,54,1.0,2.0,90,0.00,,,0.00,Wunderground v.1.15,2013-09-03 05:38:00,
2013-09-03 00:43:00,61.1,58.1,29.93,NE,54,0.0,1.0,90,0.00,,,0.00,Wunderground v.1.15,2013-09-03 05:43:00,
2013-09-03 00:49:00,60.7,57.7,29.93,WNW,291,0.0,0.0,90,0.00,,,0.00,Wunderground v.1.15,2013-09-03 05:49:00,
2013-09-03 00:54:00,60.6,57.7,29.94,WNW,282,0.0,0.0,90,0.00,,,0.00,Wunderground v.1.15,2013-09-03 05:54:00,
2013-09-03 01:00:00,60.5,57.6,29.94,WNW,282,0.0,0.0,90,0.00,,,0.00,Wunderground v.1.15,2013-09-03 06:00:00,
2013-09-03 01:06:00,60.3,57.4,29.93,WNW,282,0.0,0.0,90,0.00,,,0.00,Wunderground v.1.15,2013-09-03 06:06:00,
2013-09-03 01:11:00,60.2,57.3,29.93,WNW,282,0.0,0.0,90,0.00,,,0.00,Wunderground v.1.15,2013-09-03 06:11:00,
2013-09-03 01:16:00,60.0,57.1,29.93,West,280,0.0,0.0,90,0.00,,,0.00,Wunderground v.1.15,2013-09-03 06:16:00,
2013-09-03 01:21:00,59.7,56.8,29.93,West,278,0.0,0.0,90,0.00,,,0.00,Wunderground v.1.15,2013-09-03 06:21:00,
2013-09-03 01:26:00,59.5,56.6,29.93,West,278,0.0,0.0,90,0.00,,,0.00,Wunderground v.1.15,2013-09-03 06:26:00,
2013-09-03 01:32:00,59.3,56.4,29.93,West,277,0.0,0.0,90,0.00,,,0.00,Wunderground v.1.15,2013-09-03 06:32:00,
2013-09-03 01:37:00,59.2,56.3,29.93,West,278,0.0,0.0,90,0.00,,,0.00,Wunderground v.1.15,2013-09-03 06:37:00,
2013-09-03 01:42:00,59.1,56.2,29.94,West,278,0.0,0.0,90,0.00,,,0.00,Wunderground v.1.15,2013-09-03 06:42:00,
2013-09-03 01:48:00,59.1,56.2,29.94,West,278,0.0,0.0,90,0.00,,,0.00,Wunderground v.1.15,2013-09-03 06:48:00,
2013-09-03 01:53:00,59.1,56.2,29.94,West,278,0.0,0.0,90,0.00,,,0.00,Wunderground v.1.15,2013-09-03 06:53:00,
2013-09-03 01:58:00,59.2,56.3,29.94,West,277,0.0,0.0,90,0.00,,,0.00,Wunderground v.1.15,2013-09-03 06:58:00,
2013-09-03 02:04:00,58.8,55.9,29.93,West,278,0.0,1.0,90,0.00,,,0.00,Wunderground v.1.15,2013-09-03 07:04:00,
2013-09-03 02:09:00,58.6,55.7,29.94,West,278,1.0,1.0,90,0.00,,,0.00,Wunderground v.1.15,2013-09-03 07:09:00,
2013-09-03 02:14:00,58.1,55.2,29.94,West,278,1.0,2.0,90,0.00,,,0.00,Wunderground v.1.15,2013-09-03 07:14:00,
2013-09-03 02:20:00,57.7,54.8,29.94,West,277,1.0,1.0,90,0.00,,,0.00,Wunderground v.1.15,2013-09-03 07:20:00,
2013-09-03 02:25:00,57.6,55.0,29.94,West,278,1.0,2.0,91,0.00,,,0.00,Wunderground v.1.15,2013-09-03 07:25:00,
2013-09-03 02:31:00,57.3,54.7,29.94,West,278,2.0,2.0,91,0.00,,,0.00,Wunderground v.1.15,2013-09-03 07:31:00,
2013-09-03 02:36:00,56.8,54.2,29.94,West,278,2.0,2.0,91,0.00,,,0.00,Wunderground v.1.15,2013-09-03 07:36:00,
2013-09-03 02:42:00,56.4,53.8,29.94,West,278,2.0,2.0,91,0.00,,,0.00,Wunderground v.1.15,2013-09-03 07:42:00,
2013-09-03 02:47:00,56.1,53.5,29.94,WNW,282,2.0,2.0,91,0.00,,,0.00,Wunderground v.1.15,2013-09-03 07:47:00,
2013-09-03 02:53:00,55.8,53.2,29.95,WNW,285,2.0,3.0,91,0.00,,,0.00,Wunderground v.1.15,2013-09-03 07:53:00,
2013-09-03 02:58:00,55.5,52.9,29.95,WNW,291,2.0,3.0,91,0.00,,,0.00,Wunderground v.1.15,2013-09-03 07:58:00,
2013-09-03 03:04:00,55.4,52.8,29.95,WNW,298,3.0,4.0,91,0.00,,,0.00,Wunderground v.1.15,2013-09-03 08:04:00,
2013-09-03 03:09:00,55.4,53.1,29.95,WNW,292,3.0,4.0,92,0.00,,,0.00,Wunderground v.1.15,2013-09-03 08:09:00,
2013-09-03 03:14:00,55.4,53.1,29.95,WNW,287,3.0,3.0,92,0.00,,,0.00,Wunderground v.1.15,2013-09-03 08:14:00,
2013-09-03 03:19:00,55.4,53.1,29.95,WNW,288,2.0,3.0,92,0.00,,,0.00,Wunderground v.1.15,2013-09-03 08:19:00,
2013-09-03 03:25:00,55.3,53.0,29.96,WNW,284,2.0,2.0,92,0.00,,,0.00,Wunderground v.1.15,2013-09-03 08:25:00,
2013-09-03 03:30:00,55.2,52.9,29.96,WNW,284,2.0,2.0,92,0.00,,,0.00,Wunderground v.1.15,2013-09-03 08:30:00,
2013-09-03 03:35:00,55.1,52.8,29.96,WNW,284,2.0,3.0,92,0.00,,,0.00,Wunderground v.1.15,2013-09-03 08:35:00,
2013-09-03 03:41:00,54.9,52.6,29.96,WNW,282,2.0,2.0,92,0.00,,,0.00,Wunderground v.1.15,2013-09-03 08:41:00,
2013-09-03 03:46:00,54.8,52.5,29.96,West,280,2.0,3.0,92,0.00,,,0.00,Wunderground v.1.15,2013-09-03 08:46:00,
2013-09-03 03:51:00,54.7,52.4,29.96,West,281,2.0,3.0,92,0.00,,,0.00,Wunderground v.1.15,2013-09-03 08:51:00,
2013-09-03 03:56:00,54.7,52.4,29.96,West,280,2.0,3.0,92,0.00,,,0.00,Wunderground v.1.15,2013-09-03 08:56:00,
2013-09-03 04:02:00,54.8,52.5,29.96,West,272,2.0,2.0,92,0.00,,,0.00,Wunderground v.1.15,2013-09-03 09:02:00,
2013-09-03 04:07:00,54.8,52.5,29.96,West,268,1.0,2.0,92,0.00,,,0.00,Wunderground v.1.15,2013-09-03 09:07:00,
2013-09-03 04:12:00,54.8,52.5,29.96,West,267,0.0,0.0,92,0.00,,,0.00,Wunderground v.1.15,2013-09-03 09:12:00,
2013-09-03 04:17:00,54.8,52.5,29.96,West,267,0.0,0.0,92,0.00,,,0.00,Wunderground v.1.15,2013-09-03 09:17:00,
2013-09-03 04:22:00,54.9,52.6,29.96,West,267,0.0,0.0,92,0.00,,,0.00,Wunderground v.1.15,2013-09-03 09:22:00,
2013-09-03 04:28:00,54.7,52.4,29.96,West,267,1.0,2.0,92,0.00,,,0.00,Wunderground v.1.15,2013-09-03 09:28:00,
2013-09-03 04:33:00,54.5,52.2,29.97,West,268,1.0,2.0,92,0.00,,,0.00,Wunderground v.1.15,2013-09-03 09:33:00,
2013-09-03 04:38:00,54.2,51.9,29.97,West,267,1.0,2.0,92,0.00,,,0.00,Wunderground v.1.15,2013-09-03 09:38:00,
2013-09-03 04:43:00,53.9,51.6,29.97,West,267,0.0,1.0,92,0.00,,,0.00,Wunderground v.1.15,2013-09-03 09:43:00,
2013-09-03 04:48:00,53.8,51.5,29.97,West,267,0.0,1.0,92,0.00,,,0.00,Wunderground v.1.15,2013-09-03 09:48:00,
2013-09-03 04:53:00,53.7,51.4,29.97,West,267,0.0,0.0,92,0.00,,,0.00,Wunderground v.1.15,2013-09-03 09:53:00,
2013-09-03 04:58:00,53.7,51.4,29.97,West,265,0.0,0.0,92,0.00,,,0.00,Wunderground v.1.15,2013-09-03 09:58:00,
2013-09-03 05:04:00,53.8,51.5,29.97,West,265,0.0,0.0,92,0.00,,,0.00,Wunderground v.1.15,2013-09-03 10:04:00,
2013-09-03 05:09:00,53.7,51.4,29.98,West,265,0.0,0.0,92,0.00,,,0.00,Wunderground v.1.15,2013-09-03 10:09:00,
2013-09-03 05:14:00,53.2,50.9,29.98,West,265,0.0,0.0,92,0.00,,,0.00,Wunderground v.1.15,2013-09-03 10:14:00,
2013-09-03 05:19:00,53.1,50.8,29.98,West,265,0.0,0.0,92,0.00,,,0.00,Wunderground v.1.15,2013-09-03 10:19:00,
2013-09-03 05:24:00,53.4,51.1,29.99,West,265,0.0,0.0,92,0.00,,,0.00,Wunderground v.1.15,2013-09-03 10:24:00,
2013-09-03 05:29:00,53.3,51.0,29.99,West,265,0.0,0.0,92,0.00,,,0.00,Wunderground v.1.15,2013-09-03 10:29:00,
2013-09-03 05:34:00,53.2,50.9,29.99,West,265,0.0,0.0,92,0.00,,,0.00,Wunderground v.1.15,2013-09-03 10:34:00,
2013-09-03 05:39:00,53.4,51.1,29.99,West,265,0.0,0.0,92,0.00,,,0.00,Wunderground v.1.15,2013-09-03 10:39:00,
2013-09-03 05:44:00,53.1,50.8,29.99,WSW,240,0.0,2.0,92,0.00,,,0.00,Wunderground v.1.15,2013-09-03 10:44:00,
2013-09-03 05:50:00,53.3,51.0,29.99,SW,227,1.0,1.0,92,0.00,,,0.00,Wunderground v.1.15,2013-09-03 10:50:00,
2013-09-03 05:55:00,53.4,51.1,29.99,SW,227,2.0,2.0,92,0.00,,,0.00,Wunderground v.1.15,2013-09-03 10:55:00,
2013-09-03 06:00:00,53.3,51.0,29.99,SW,227,1.0,1.0,92,0.00,,,0.00,Wunderground v.1.15,2013-09-03 11:00:00,
2013-09-03 06:05:00,53.4,51.1,30.00,SW,227,0.0,1.0,92,0.00,,,0.00,Wunderground v.1.15,2013-09-03 11:05:00,
2013-09-03 06:10:00,52.9,50.6,29.99,WSW,243,0.0,1.0,92,0.00,,,0.00,Wunderground v.1.15,2013-09-03 11:10:00,
2013-09-03 06:15:00,52.5,49.9,30.00,WSW,246,1.0,2.0,91,0.00,,,0.00,Wunderground v.1.15,2013-09-03 11:15:00,
2013-09-03 06:20:00,52.1,49.6,30.00,WSW,256,2.0,2.0,91,0.00,,,0.00,Wunderground v.1.15,2013-09-03 11:20:00,
2013-09-03 06:26:00,52.1,49.8,30.00,West,267,2.0,3.0,92,0.00,,,0.00,Wunderground v.1.15,2013-09-03 11:26:00,
2013-09-03 06:32:00,52.4,50.1,30.01,WSW,251,1.0,2.0,92,0.00,,,0.00,Wunderground v.1.15,2013-09-03 11:32:00,
2013-09-03 06:37:00,52.8,50.8,30.01,WSW,251,1.0,2.0,93,0.00,,,0.00,Wunderground v.1.15,2013-09-03 11:37:00,
2013-09-03 06:43:00,53.2,51.2,30.02,WSW,254,1.0,2.0,93,0.00,,,0.00,Wunderground v.1.15,2013-09-03 11:43:00,
2013-09-03 06:48:00,53.7,51.7,30.01,WSW,254,1.0,2.0,93,0.00,,,0.00,Wunderground v.1.15,2013-09-03 11:48:00,
2013-09-03 06:53:00,54.0,52.0,30.02,WSW,245,0.0,1.0,93,0.00,,,0.00,Wunderground v.1.15,2013-09-03 11:53:00,
2013-09-03 06:58:00,54.2,52.2,30.02,WSW,248,1.0,1.0,93,0.00,,,0.00,Wunderground v.1.15,2013-09-03 11:58:00,
2013-09-03 07:03:00,54.5,52.5,30.02,WSW,246,1.0,1.0,93,0.00,,,0.00,Wunderground v.1.15,2013-09-03 12:03:00,
2013-09-03 07:08:00,54.9,52.9,30.02,WSW,245,1.0,1.0,93,0.00,,,0.00,Wunderground v.1.15,2013-09-03 12:08:00,
2013-09-03 07:13:00,55.3,53.3,30.02,WSW,240,0.0,1.0,93,0.00,,,0.00,Wunderground v.1.15,2013-09-03 12:13:00,
2013-09-03 07:19:00,55.7,53.7,30.02,WSW,244,0.0,0.0,93,0.00,,,0.00,Wunderground v.1.15,2013-09-03 12:19:00,
2013-09-03 07:24:00,56.0,54.0,30.03,WSW,244,0.0,1.0,93,0.00,,,0.00,Wunderground v.1.15,2013-09-03 12:24:00,
2013-09-03 07:29:00,56.4,54.4,30.03,West,259,1.0,1.0,93,0.00,,,0.00,Wunderground v.1.15,2013-09-03 12:29:00,
2013-09-03 07:34:00,56.5,54.5,30.03,West,265,1.0,2.0,93,0.00,,,0.00,Wunderground v.1.15,2013-09-03 12:34:00,
2013-09-03 07:39:00,56.6,54.6,30.03,WSW,255,2.0,2.0,93,0.00,,,0.00,Wunderground v.1.15,2013-09-03 12:39:00,
2013-09-03 07:45:00,56.8,54.8,30.03,WSW,255,1.0,2.0,93,0.00,,,0.00,Wunderground v.1.15,2013-09-03 12:45:00,
2013-09-03 07:50:00,57.2,55.2,30.03,West,269,1.0,3.0,93,0.00,,,0.00,Wunderground v.1.15,2013-09-03 12:50:00,
2013-09-03 07:55:00,57.4,55.4,30.03,West,269,2.0,3.0,93,0.00,,,0.00,Wunderground v.1.15,2013-09-03 12:55:00,
2013-09-03 08:00:00,57.9,55.9,30.03,West,270,1.0,1.0,93,0.00,,,0.00,Wunderground v.1.15,2013-09-03 13:00:00,
2013-09-03 08:06:00,58.3,56.3,30.02,West,270,1.0,2.0,93,0.00,,,0.00,Wunderground v.1.15,2013-09-03 13:06:00,
2013-09-03 08:11:00,58.6,56.3,30.02,WNW,291,1.0,2.0,92,0.00,,,0.00,Wunderground v.1.15,2013-09-03 13:11:00,
2013-09-03 08:16:00,58.9,56.6,30.03,WNW,292,2.0,3.0,92,0.00,,,0.00,Wunderground v.1.15,2013-09-03 13:16:00,
2013-09-03 08:21:00,59.0,56.4,30.02,NW,320,3.0,3.0,91,0.00,,,0.00,Wunderground v.1.15,2013-09-03 13:21:00,
2013-09-03 08:27:00,59.6,57.0,30.02,West,269,2.0,3.0,91,0.00,,,0.00,Wunderground v.1.15,2013-09-03 13:27:00,
2013-09-03 08:32:00,60.1,57.5,30.02,WNW,282,2.0,4.0,91,0.00,,,0.00,Wunderground v.1.15,2013-09-03 13:32:00,
2013-09-03 08:37:00,60.3,57.4,30.02,WNW,290,2.0,4.0,90,0.00,,,0.00,Wunderground v.1.15,2013-09-03 13:37:00,
2013-09-03 08:42:00,60.9,57.9,30.03,WNW,290,2.0,3.0,90,0.00,,,0.00,Wunderground v.1.15,2013-09-03 13:42:00,
2013-09-03 08:47:00,61.4,58.4,30.03,WSW,258,1.0,3.0,90,0.00,,,0.00,Wunderground v.1.15,2013-09-03 13:47:00,
2013-09-03 08:52:00,62.0,59.0,30.03,West,278,1.0,2.0,90,0.00,,,0.00,Wunderground v.1.15,2013-09-03 13:52:00,
2013-09-03 08:57:00,62.4,59.4,30.03,West,278,1.0,2.0,90,0.00,,,0.00,Wunderground v.1.15,2013-09-03 13:57:00,
2013-09-03 09:03:00,63.3,60.3,30.03,West,278,1.0,2.0,90,0.00,,,0.00,Wunderground v.1.15,2013-09-03 14:03:00,
2013-09-03 09:08:00,63.3,60.3,30.03,West,264,2.0,4.0,90,0.00,,,0.00,Wunderground v.1.15,2013-09-03 14:08:00,
2013-09-03 09:13:00,63.2,60.2,30.03,WSW,254,2.0,2.0,90,0.00,,,0.00,Wunderground v.1.15,2013-09-03 14:13:00,
2013-09-03 09:18:00,63.3,60.3,30.03,West,264,2.0,2.0,90,0.00,,,0.00,Wunderground v.1.15,2013-09-03 14:18:00,
2013-09-03 09:23:00,63.5,60.2,30.03,WSW,244,1.0,2.0,89,0.00,,,0.00,Wunderground v.1.15,2013-09-03 14:23:00,
2013-09-03 09:28:00,63.8,60.5,30.03,SW,231,1.0,4.0,89,0.00,,,0.00,Wunderground v.1.15,2013-09-03 14:28:00,
2013-09-03 09:33:00,64.6,61.0,30.03,West,277,2.0,3.0,88,0.00,,,0.00,Wunderground v.1.15,2013-09-03 14:33:00,
2013-09-03 09:38:00,64.7,60.4,30.03,WNW,295,2.0,3.0,86,0.00,,,0.00,Wunderground v.1.15,2013-09-03 14:38:00,
2013-09-03 09:43:00,64.9,60.3,30.03,WNW,294,2.0,3.0,85,0.00,,,0.00,Wunderground v.1.15,2013-09-03 14:43:00,
2013-09-03 09:48:00,64.8,60.2,30.04,WSW,251,2.0,3.0,85,0.00,,,0.00,Wunderground v.1.15,2013-09-03 14:48:00,
2013-09-03 09:53:00,64.5,60.2,30.03,WSW,254,1.0,2.0,86,0.00,,,0.00,Wunderground v.1.15,2013-09-03 14:53:00,
2013-09-03 09:59:00,64.3,60.0,30.03,WSW,243,1.0,3.0,86,0.00,,,0.00,Wunderground v.1.15,2013-09-03 14:59:00,
2013-09-03 10:04:00,64.6,60.3,30.04,SW,229,2.0,3.0,86,0.00,,,0.00,Wunderground v.1.15,2013-09-03 15:04:00,
2013-09-03 10:09:00,65.5,59.9,30.04,WSW,255,2.0,2.0,82,0.00,,,0.00,Wunderground v.1.15,2013-09-03 15:09:00,
2013-09-03 10:14:00,66.6,59.2,30.04,SSW,206,1.0,2.0,77,0.00,,,0.00,Wunderground v.1.15,2013-09-03 15:14:00,
2013-09-03 10:19:00,67.5,59.3,30.03,WNW,287,0.0,0.0,75,0.00,,,0.00,Wunderground v.1.15,2013-09-03 15:19:00,
2013-09-03 10:25:00,67.7,59.5,30.03,SW,227,1.0,4.0,75,0.00,,,0.00,Wunderground v.1.15,2013-09-03 15:25:00,
2013-09-03 10:30:00,67.5,58.9,30.04,West,260,2.0,2.0,74,0.00,,,0.00,Wunderground v.1.15,2013-09-03 15:30:00,
2013-09-03 10:35:00,67.0,59.2,30.04,WSW,243,2.0,2.0,76,0.00,,,0.00,Wunderground v.1.15,2013-09-03 15:35:00,
2013-09-03 10:40:00,66.6,59.5,30.04,SW,228,2.0,2.0,78,0.00,,,0.00,Wunderground v.1.15,2013-09-03 15:40:00,
2013-09-03 10:45:00,66.8,60.1,30.04,SSW,204,2.0,3.0,79,0.00,,,0.00,Wunderground v.1.15,2013-09-03 15:45:00,
2013-09-03 10:50:00,68.0,60.9,30.04,SSW,213,2.0,4.0,78,0.00,,,0.00,Wunderground v.1.15,2013-09-03 15:50:00,
2013-09-03 10:56:00,68.8,59.8,30.04,WSW,237,2.0,5.0,73,0.00,,,0.00,Wunderground v.1.15,2013-09-03 15:56:00,
2013-09-03 11:02:00,69.6,58.6,30.05,NNW,328,3.0,5.0,68,0.00,,,0.00,Wunderground v.1.15,2013-09-03 16:02:00,
2013-09-03 11:07:00,69.1,59.7,30.05,WSW,256,3.0,5.0,72,0.00,,,0.00,Wunderground v.1.15,2013-09-03 16:07:00,
2013-09-03 11:12:00,68.4,59.4,30.05,West,267,4.0,4.0,73,0.00,,,0.00,Wunderground v.1.15,2013-09-03 16:12:00,
2013-09-03 11:17:00,68.0,58.6,30.05,WSW,252,4.0,5.0,72,0.00,,,0.00,Wunderground v.1.15,2013-09-03 16:17:00,
2013-09-03 11:22:00,69.1,58.9,30.05,West,275,3.0,4.0,70,0.00,,,0.00,Wunderground v.1.15,2013-09-03 16:22:00,
2013-09-03 11:28:00,69.4,57.5,30.05,East,82,2.0,4.0,66,0.00,,,0.00,Wunderground v.1.15,2013-09-03 16:28:00,
2013-09-03 11:33:00,70.3,58.0,30.05,WNW,293,3.0,4.0,65,0.00,,,0.00,Wunderground v.1.15,2013-09-03 16:33:00,
2013-09-03 11:38:00,71.0,58.6,30.05,WNW,289,3.0,6.0,65,0.00,,,0.00,Wunderground v.1.15,2013-09-03 16:38:00,
2013-09-03 11:43:00,70.1,58.2,30.05,WNW,293,4.0,7.0,66,0.00,,,0.00,Wunderground v.1.15,2013-09-03 16:43:00,
2013-09-03 11:48:00,69.8,57.9,30.05,SW,233,3.0,7.0,66,0.00,,,0.00,Wunderground v.1.15,2013-09-03 16:48:00,
2013-09-03 11:54:00,70.2,57.9,30.05,NNW,329,2.0,4.0,65,0.00,,,0.00,Wunderground v.1.15,2013-09-03 16:54:00,
2013-09-03 11:59:00,70.8,58.0,30.05,NW,315,3.0,7.0,64,0.00,,,0.00,Wunderground v.1.15,2013-09-03 16:59:00,
2013-09-03 12:05:00,70.9,58.1,30.05,WNW,296,4.0,6.0,64,0.00,,,0.00,Wunderground v.1.15,2013-09-03 17:05:00,
2013-09-03 12:10:00,70.7,58.4,30.05,WSW,252,5.0,5.0,65,0.00,,,0.00,Wunderground v.1.15,2013-09-03 17:10:00,
2013-09-03 12:15:00,71.3,57.6,30.05,West,263,3.0,5.0,62,0.00,,,0.00,Wunderground v.1.15,2013-09-03 17:15:00,
2013-09-03 12:20:00,71.8,58.1,30.05,SW,227,2.0,2.0,62,0.00,,,0.00,Wunderground v.1.15,2013-09-03 17:20:00,
2013-09-03 12:25:00,73.1,57.0,30.05,WNW,292,2.0,3.0,57,0.00,,,0.00,Wunderground v.1.15,2013-09-03 17:25:00,
2013-09-03 12:30:00,72.2,57.1,30.05,West,265,2.0,2.0,59,0.00,,,0.00,Wunderground v.1.15,2013-09-03 17:30:00,
2013-09-03 12:35:00,72.2,58.5,30.04,WNW,289,4.0,9.0,62,0.00,,,0.00,Wunderground v.1.15,2013-09-03 17:35:00,
2013-09-03 12:40:00,72.0,57.8,30.04,NW,324,5.0,6.0,61,0.00,,,0.00,Wunderground v.1.15,2013-09-03 17:40:00,
2013-09-03 12:45:00,72.0,57.8,30.04,West,270,5.0,7.0,61,0.00,,,0.00,Wunderground v.1.15,2013-09-03 17:45:00,
2013-09-03 12:50:00,72.3,57.2,30.04,SW,222,4.0,4.0,59,0.00,,,0.00,Wunderground v.1.15,2013-09-03 17:50:00,
2013-09-03 12:55:00,72.1,57.0,30.03,WSW,239,4.0,6.0,59,0.00,,,0.00,Wunderground v.1.15,2013-09-03 17:55:00,
2013-09-03 13:01:00,72.6,57.9,30.03,WSW,243,4.0,5.0,60,0.00,,,0.00,Wunderground v.1.15,2013-09-03 18:01:00,
2013-09-03 13:06:00,72.9,57.7,30.03,NNW,333,5.0,10.0,59,0.00,,,0.00,Wunderground v.1.15,2013-09-03 18:06:00,
2013-09-03 13:11:00,72.3,57.2,30.03,West,268,6.0,10.0,59,0.00,,,0.00,Wunderground v.1.15,2013-09-03 18:11:00,
2013-09-03 13:16:00,72.6,57.9,30.03,WNW,289,5.0,10.0,60,0.00,,,0.00,Wunderground v.1.15,2013-09-03 18:16:00,
2013-09-03 13:21:00,72.9,57.3,30.03,WNW,295,4.0,5.0,58,0.00,,,0.00,Wunderground v.1.15,2013-09-03 18:21:00,
2013-09-03 13:26:00,72.9,57.3,30.03,WSW,254,3.0,5.0,58,0.00,,,0.00,Wunderground v.1.15,2013-09-03 18:26:00,
2013-09-03 13:31:00,72.8,56.2,30.02,WSW,246,2.0,3.0,56,0.00,,,0.00,Wunderground v.1.15,2013-09-03 18:31:00,
2013-09-03 13:37:00,73.3,57.6,30.02,WNW,287,3.0,6.0,58,0.00,,,0.00,Wunderground v.1.15,2013-09-03 18:37:00,
2013-09-03 13:42:00,73.9,58.2,30.02,WNW,295,4.0,6.0,58,0.00,,,0.00,Wunderground v.1.15,2013-09-03 18:42:00,
2013-09-03 13:47:00,74.2,57.5,30.02,NNW,329,4.0,6.0,56,0.00,,,0.00,Wunderground v.1.15,2013-09-03 18:47:00,
2013-09-03 13:52:00,73.8,57.1,30.01,East,79,4.0,5.0,56,0.00,,,0.00,Wunderground v.1.15,2013-09-03 18:52:00,
2013-09-03 13:57:00,73.3,56.7,30.01,West,269,4.0,5.0,56,0.00,,,0.00,Wunderground v.1.15,2013-09-03 18:57:00,
2013-09-03 14:03:00,74.0,57.3,30.02,WSW,252,4.0,6.0,56,0.00,,,0.00,Wunderground v.1.15,2013-09-03 19:03:00,
2013-09-03 14:08:00,74.1,57.4,30.01,WNW,289,4.0,7.0,56,0.00,,,0.00,Wunderground v.1.15,2013-09-03 19:08:00,
2013-09-03 14:13:00,74.0,56.8,30.01,West,270,4.0,8.0,55,0.00,,,0.00,Wunderground v.1.15,2013-09-03 19:13:00,
2013-09-03 14:18:00,74.3,57.6,30.01,West,271,5.0,8.0,56,0.00,,,0.00,Wunderground v.1.15,2013-09-03 19:18:00,
2013-09-03 14:23:00,73.9,57.2,30.01,West,270,4.0,6.0,56,0.00,,,0.00,Wunderground v.1.15,2013-09-03 19:23:00,
2013-09-03 14:28:00,74.2,57.5,30.01,WSW,239,3.0,6.0,56,0.00,,,0.00,Wunderground v.1.15,2013-09-03 19:28:00,
2013-09-03 14:33:00,74.6,57.4,30.00,West,279,3.0,3.0,55,0.00,,,0.00,Wunderground v.1.15,2013-09-03 19:33:00,
2013-09-03 14:38:00,74.7,57.5,30.00,NW,311,3.0,7.0,55,0.00,,,0.00,Wunderground v.1.15,2013-09-03 19:38:00,
2013-09-03 14:44:00,74.9,57.6,30.00,NNW,339,5.0,8.0,55,0.00,,,0.00,Wunderground v.1.15,2013-09-03 19:44:00,
2013-09-03 14:49:00,74.5,57.3,30.00,SSW,206,4.0,8.0,55,0.00,,,0.00,Wunderground v.1.15,2013-09-03 19:49:00,
2013-09-03 14:54:00,74.7,57.5,29.99,ENE,66,3.0,7.0,55,0.00,,,0.00,Wunderground v.1.15,2013-09-03 19:54:00,
2013-09-03 15:00:00,74.9,58.1,29.99,WSW,237,3.0,3.0,56,0.00,,,0.00,Wunderground v.1.15,2013-09-03 20:00:00,
2013-09-03 15:05:00,75.5,57.2,29.99,NNE,27,3.0,4.0,53,0.00,,,0.00,Wunderground v.1.15,2013-09-03 20:05:00,
2013-09-03 15:10:00,75.5,58.7,29.99,WNW,282,4.0,7.0,56,0.00,,,0.00,Wunderground v.1.15,2013-09-03 20:10:00,
2013-09-03 15:15:00,75.3,57.5,29.99,NW,307,5.0,9.0,54,0.00,,,0.00,Wunderground v.1.15,2013-09-03 20:15:00,
2013-09-03 15:20:00,75.3,57.5,29.99,WSW,248,5.0,5.0,54,0.00,,,0.00,Wunderground v.1.15,2013-09-03 20:20:00,
2013-09-03 15:25:00,75.6,57.8,29.98,NNE,29,3.0,5.0,54,0.00,,,0.00,Wunderground v.1.15,2013-09-03 20:25:00,
2013-09-03 15:30:00,75.7,57.9,29.98,WSW,239,1.0,2.0,54,0.00,,,0.00,Wunderground v.1.15,2013-09-03 20:30:00,
2013-09-03 15:35:00,76.0,58.2,29.98,SW,220,3.0,5.0,54,0.00,,,0.00,Wunderground v.1.15,2013-09-03 20:35:00,
2013-09-03 15:40:00,75.8,57.4,29.98,NW,315,5.0,6.0,53,0.00,,,0.00,Wunderground v.1.15,2013-09-03 20:40:00,
2013-09-03 15:45:00,75.8,57.4,29.98,NNW,332,4.0,6.0,53,0.00,,,0.00,Wunderground v.1.15,2013-09-03 20:45:00,
2013-09-03 15:50:00,75.7,57.9,29.98,West,265,4.0,4.0,54,0.00,,,0.00,Wunderground v.1.15,2013-09-03 20:50:00,
2013-09-03 15:55:00,75.9,58.1,29.99,West,277,3.0,5.0,54,0.00,,,0.00,Wunderground v.1.15,2013-09-03 20:55:00,
2013-09-03 16:01:00,75.7,58.4,29.98,West,280,3.0,3.0,55,0.00,,,0.00,Wunderground v.1.15,2013-09-03 21:01:00,
2013-09-03 16:06:00,75.2,58.4,29.98,West,259,3.0,5.0,56,0.00,,,0.00,Wunderground v.1.15,2013-09-03 21:06:00,
2013-09-03 16:11:00,74.6,58.4,29.98,WSW,248,3.0,4.0,57,0.00,,,0.00,Wunderground v.1.15,2013-09-03 21:11:00,
2013-09-03 16:16:00,75.0,58.7,29.98,West,272,4.0,6.0,57,0.00,,,0.00,Wunderground v.1.15,2013-09-03 21:16:00,
2013-09-03 16:21:00,75.4,58.1,29.98,WNW,296,4.0,6.0,55,0.00,,,0.00,Wunderground v.1.15,2013-09-03 21:21:00,
2013-09-03 16:26:00,75.8,59.0,29.98,West,268,4.0,6.0,56,0.00,,,0.00,Wunderground v.1.15,2013-09-03 21:26:00,
2013-09-03 16:31:00,76.2,57.8,29.98,West,269,4.0,4.0,53,0.00,,,0.00,Wunderground v.1.15,2013-09-03 21:31:00,
2013-09-03 16:36:00,75.7,58.4,29.98,West,263,4.0,8.0,55,0.00,,,0.00,Wunderground v.1.15,2013-09-03 21:36:00,
2013-09-03 16:41:00,75.7,57.9,29.98,WSW,250,4.0,4.0,54,0.00,,,0.00,Wunderground v.1.15,2013-09-03 21:41:00,
2013-09-03 16:46:00,76.5,59.1,29.98,WNW,299,3.0,9.0,55,0.00,,,0.00,Wunderground v.1.15,2013-09-03 21:46:00,
2013-09-03 16:51:00,76.1,58.8,29.98,West,272,3.0,4.0,55,0.00,,,0.00,Wunderground v.1.15,2013-09-03 21:51:00,
2013-09-03 16:56:00,76.1,58.2,29.98,West,280,4.0,7.0,54,0.00,,,0.00,Wunderground v.1.15,2013-09-03 21:56:00,
2013-09-03 17:02:00,76.0,58.2,29.98,West,261,3.0,5.0,54,0.00,,,0.00,Wunderground v.1.15,2013-09-03 22:02:00,
2013-09-03 17:08:00,76.1,58.8,29.98,West,273,3.0,6.0,55,0.00,,,0.00,Wunderground v.1.15,2013-09-03 22:08:00,
2013-09-03 17:12:00,76.2,58.3,29.98,WNW,282,3.0,6.0,54,0.00,,,0.00,Wunderground v.1.15,2013-09-03 22:12:00,
2013-09-03 17:18:00,76.1,58.2,29.98,WSW,257,3.0,6.0,54,0.00,,,0.00,Wunderground v.1.15,2013-09-03 22:18:00,
2013-09-03 17:24:00,76.4,58.5,29.98,NW,310,3.0,6.0,54,0.00,,,0.00,Wunderground v.1.15,2013-09-03 22:24:00,
2013-09-03 17:29:00,76.2,58.3,29.98,WNW,299,4.0,6.0,54,0.00,,,0.00,Wunderground v.1.15,2013-09-03 22:29:00,
2013-09-03 17:34:00,76.2,58.9,29.98,West,263,3.0,4.0,55,0.00,,,0.00,Wunderground v.1.15,2013-09-03 22:34:00,
2013-09-03 17:39:00,76.5,58.6,29.98,West,267,3.0,4.0,54,0.00,,,0.00,Wunderground v.1.15,2013-09-03 22:39:00,
2013-09-03 17:44:00,76.1,58.2,29.98,WNW,287,3.0,5.0,54,0.00,,,0.00,Wunderground v.1.15,2013-09-03 22:44:00,
2013-09-03 17:49:00,76.3,58.4,29.97,West,265,3.0,5.0,54,0.00,,,0.00,Wunderground v.1.15,2013-09-03 22:49:00,
2013-09-03 17:54:00,76.1,58.2,29.97,WNW,283,3.0,4.0,54,0.00,,,0.00,Wunderground v.1.15,2013-09-03 22:54:00,
2013-09-03 18:00:00,75.4,58.6,29.97,WNW,296,3.0,4.0,56,0.00,,,0.00,Wunderground v.1.15,2013-09-03 23:00:00,
2013-09-03 18:05:00,74.8,58.5,29.98,WNW,289,3.0,5.0,57,0.00,,,0.00,Wunderground v.1.15,2013-09-03 23:05:00,
2013-09-03 18:10:00,74.5,59.7,29.98,West,276,4.0,4.0,60,0.00,,,0.00,Wunderground v.1.15,2013-09-03 23:10:00,
2013-09-03 18:15:00,74.9,59.6,29.97,West,279,3.0,4.0,59,0.00,,,0.00,Wunderground v.1.15,2013-09-03 23:15:00,
2013-09-03 18:20:00,74.9,59.1,29.97,West,276,2.0,2.0,58,0.00,,,0.00,Wunderground v.1.15,2013-09-03 23:20:00,
2013-09-03 18:25:00,74.3,59.5,29.98,WNW,282,3.0,4.0,60,0.00,,,0.00,Wunderground v.1.15,2013-09-03 23:25:00,
2013-09-03 18:30:00,73.6,59.8,29.98,West,275,3.0,3.0,62,0.00,,,0.00,Wunderground v.1.15,2013-09-03 23:30:00,
2013-09-03 18:35:00,73.0,60.1,29.98,West,264,2.0,3.0,64,0.00,,,0.00,Wunderground v.1.15,2013-09-03 23:35:00,
2013-09-03 18:40:00,72.6,60.2,29.98,West,263,0.0,0.0,65,0.00,,,0.00,Wunderground v.1.15,2013-09-03 23:40:00,
2013-09-03 18:45:00,72.3,59.9,29.98,West,265,0.0,1.0,65,0.00,,,0.00,Wunderground v.1.15,2013-09-03 23:45:00,
2013-09-03 18:50:00,72.1,59.7,29.98,West,265,1.0,1.0,65,0.00,,,0.00,Wunderground v.1.15,2013-09-03 23:50:00,
2013-09-03 18:55:00,71.7,59.7,29.97,West,263,1.0,1.0,66,0.00,,,0.00,Wunderground v.1.15,2013-09-03 23:55:00,
2013-09-03 19:01:00,71.9,59.5,29.98,West,263,0.0,1.0,65,0.00,,,0.00,Wunderground v.1.15,2013-09-04 00:01:00,
2013-09-03 19:06:00,71.8,60.2,29.98,West,266,1.0,3.0,67,0.00,,,0.00,Wunderground v.1.15,2013-09-04 00:06:00,
2013-09-03 19:11:00,71.1,60.4,29.98,West,270,2.0,3.0,69,0.00,,,0.00,Wunderground v.1.15,2013-09-04 00:11:00,
2013-09-03 19:16:00,70.5,60.6,29.98,West,263,2.0,3.0,71,0.00,,,0.00,Wunderground v.1.15,2013-09-04 00:16:00,
2013-09-03 19:21:00,69.7,60.7,29.99,West,261,2.0,2.0,73,0.00,,,0.00,Wunderground v.1.15,2013-09-04 00:21:00,
2013-09-03 19:26:00,69.2,60.6,29.99,West,265,2.0,2.0,74,0.00,,,0.00,Wunderground v.1.15,2013-09-04 00:26:00,
2013-09-03 19:31:00,69.0,60.4,29.99,West,277,2.0,3.0,74,0.00,,,0.00,Wunderground v.1.15,2013-09-04 00:31:00,
2013-09-03 19:36:00,68.7,60.1,29.99,West,274,2.0,3.0,74,0.00,,,0.00,Wunderground v.1.15,2013-09-04 00:36:00,
2013-09-03 19:41:00,68.4,59.8,29.99,West,273,1.0,1.0,74,0.00,,,0.00,Wunderground v.1.15,2013-09-04 00:41:00,
2013-09-03 19:46:00,68.6,60.0,29.99,West,274,0.0,1.0,74,0.00,,,0.00,Wunderground v.1.15,2013-09-04 00:46:00,
2013-09-03 19:51:00,67.7,59.5,29.99,West,274,0.0,0.0,75,0.00,,,0.00,Wunderground v.1.15,2013-09-04 00:51:00,
2013-09-03 19:56:00,66.7,59.3,29.99,West,274,0.0,0.0,77,0.00,,,0.00,Wunderground v.1.15,2013-09-04 00:56:00,
2013-09-03 20:01:00,66.4,59.3,29.99,West,275,0.0,0.0,78,0.00,,,0.00,Wunderground v.1.15,2013-09-04 01:01:00,
2013-09-03 20:07:00,66.6,59.2,29.99,West,275,0.0,0.0,77,0.00,,,0.00,Wunderground v.1.15,2013-09-04 01:07:00,
2013-09-03 20:12:00,66.4,59.0,29.99,West,275,0.0,0.0,77,0.00,,,0.00,Wunderground v.1.15,2013-09-04 01:12:00,
2013-09-03 20:17:00,66.1,58.7,29.99,West,275,0.0,0.0,77,0.00,,,0.00,Wunderground v.1.15,2013-09-04 01:17:00,
2013-09-03 20:22:00,66.6,58.8,29.99,West,274,0.0,0.0,76,0.00,,,0.00,Wunderground v.1.15,2013-09-04 01:22:00,
2013-09-03 20:27:00,66.2,58.8,30.00,West,274,0.0,0.0,77,0.00,,,0.00,Wunderground v.1.15,2013-09-04 01:27:00,
2013-09-03 20:32:00,65.7,58.7,30.00,West,274,0.0,0.0,78,0.00,,,0.00,Wunderground v.1.15,2013-09-04 01:32:00,
2013-09-03 20:37:00,65.2,58.5,30.00,West,274,0.0,0.0,79,0.00,,,0.00,Wunderground v.1.15,2013-09-04 01:37:00,
2013-09-03 20:42:00,65.2,58.5,30.00,West,275,0.0,0.0,79,0.00,,,0.00,Wunderground v.1.15,2013-09-04 01:42:00,
2013-09-03 20:47:00,65.1,58.4,30.00,West,278,0.0,0.0,79,0.00,,,0.00,Wunderground v.1.15,2013-09-04 01:47:00,
2013-09-03 20:52:00,64.9,58.2,30.00,WSW,255,0.0,0.0,79,0.00,,,0.00,Wunderground v.1.15,2013-09-04 01:52:00,
2013-09-03 20:57:00,64.6,58.3,30.00,WSW,255,0.0,0.0,80,0.00,,,0.00,Wunderground v.1.15,2013-09-04 01:57:00,
2013-09-03 21:03:00,64.5,57.8,30.00,WSW,253,0.0,0.0,79,0.00,,,0.00,Wunderground v.1.15,2013-09-04 02:03:00,
2013-09-03 21:08:00,64.2,57.9,30.00,SSW,208,0.0,0.0,80,0.00,,,0.00,Wunderground v.1.15,2013-09-04 02:08:00,
2013-09-03 21:13:00,64.1,58.1,30.00,SSW,194,0.0,0.0,81,0.00,,,0.00,Wunderground v.1.15,2013-09-04 02:13:00,
2013-09-03 21:18:00,63.7,57.8,30.00,SSW,195,0.0,0.0,81,0.00,,,0.00,Wunderground v.1.15,2013-09-04 02:18:00,
2013-09-03 21:23:00,63.3,57.7,30.00,SSW,194,0.0,0.0,82,0.00,,,0.00,Wunderground v.1.15,2013-09-04 02:23:00,
2013-09-03 21:29:00,63.0,57.8,30.00,SSW,194,0.0,0.0,83,0.00,,,0.00,Wunderground v.1.15,2013-09-04 02:29:00,
2013-09-03 21:34:00,62.6,57.4,30.00,SSW,195,0.0,0.0,83,0.00,,,0.00,Wunderground v.1.15,2013-09-04 02:34:00,
2013-09-03 21:39:00,62.2,57.3,30.00,SSW,195,0.0,0.0,84,0.00,,,0.00,Wunderground v.1.15,2013-09-04 02:39:00,
2013-09-03 21:44:00,62.2,57.6,30.00,SSW,194,0.0,0.0,85,0.00,,,0.00,Wunderground v.1.15,2013-09-04 02:44:00,
2013-09-03 21:49:00,62.0,57.4,30.00,SSW,195,0.0,0.0,85,0.00,,,0.00,Wunderground v.1.15,2013-09-04 02:49:00,
2013-09-03 21:54:00,61.9,57.3,30.00,SSW,195,0.0,0.0,85,0.00,,,0.00,Wunderground v.1.15,2013-09-04 02:54:00,
2013-09-03 22:00:00,61.8,57.6,30.00,SSW,194,0.0,0.0,86,0.00,,,0.00,Wunderground v.1.15,2013-09-04 03:00:00,
2013-09-03 22:06:00,61.6,57.4,30.01,SSW,195,0.0,0.0,86,0.00,,,0.00,Wunderground v.1.15,2013-09-04 03:06:00,
2013-09-03 22:31:00,62.0,56.8,30.01,SSW,195,0.0,0.0,83,0.00,,,0.00,Wunderground v.1.15,2013-09-04 03:31:00,
2013-09-03 22:37:00,61.2,56.7,30.01,SSW,195,0.0,3.0,85,0.00,,,0.00,Wunderground v.1.15,2013-09-04 03:37:00,
2013-09-03 22:42:00,61.0,56.5,30.01,SSW,202,2.0,3.0,85,0.00,,,0.00,Wunderground v.1.15,2013-09-04 03:42:00,
2013-09-03 22:48:00,60.8,56.3,30.00,SSW,199,3.0,3.0,85,0.00,,,0.00,Wunderground v.1.15,2013-09-04 03:48:00,
2013-09-03 22:53:00,60.9,56.4,30.00,SSW,201,2.0,3.0,85,0.00,,,0.00,Wunderground v.1.15,2013-09-04 03:53:00,
2013-09-03 22:58:00,60.9,56.0,30.00,SSW,198,3.0,3.0,84,0.00,,,0.00,Wunderground v.1.15,2013-09-04 03:58:00,
2013-09-03 23:01:00,60.8,55.9,30.00,South,176,2.0,2.0,84,0.00,,,0.00,Wunderground v.1.15,2013-09-04 04:01:00,
2013-09-03 23:02:00,60.7,55.8,30.00,South,183,2.0,2.0,84,0.00,,,0.00,Wunderground v.1.15,2013-09-04 04:02:00,
2013-09-03 23:07:00,60.0,55.5,30.00,SSW,208,2.0,2.0,85,0.00,,,0.00,Wunderground v.1.15,2013-09-04 04:07:00,
2013-09-03 23:10:00,59.7,55.2,30.00,SW,216,2.0,2.0,85,0.00,,,0.00,Wunderground v.1.15,2013-09-04 04:10:00,
2013-09-03 23:13:00,59.3,54.8,30.00,SW,219,2.0,2.0,85,0.00,,,0.00,Wunderground v.1.15,2013-09-04 04:13:00,
2013-09-03 23:14:00,59.1,54.9,30.00,SW,222,2.0,2.0,86,0.00,,,0.00,Wunderground v.1.15,2013-09-04 04:14:00,
2013-09-03 23:19:00,58.4,54.5,30.00,SW,227,1.0,1.0,87,0.00,,,0.00,Wunderground v.1.15,2013-09-04 04:19:00,
2013-09-03 23:22:00,58.1,54.2,30.00,SW,235,1.0,2.0,87,0.00,,,0.00,Wunderground v.1.15,2013-09-04 04:22:00,
2013-09-03 23:27:00,57.5,54.0,30.00,SW,230,1.0,2.0,88,0.00,,,0.00,Wunderground v.1.15,2013-09-04 04:27:00,
2013-09-03 23:32:00,57.1,53.9,30.00,SW,218,1.0,2.0,89,0.00,,,0.00,Wunderground v.1.15,2013-09-04 04:32:00,
2013-09-03 23:38:00,56.9,53.7,30.01,SW,220,2.0,2.0,89,0.00,,,0.00,Wunderground v.1.15,2013-09-04 04:38:00,
2013-09-03 23:44:00,56.8,53.6,30.01,SW,219,2.0,2.0,89,0.00,,,0.00,Wunderground v.1.15,2013-09-04 04:44:00,
2013-09-03 23:49:00,56.9,54.0,30.01,SW,218,2.0,2.0,90,0.00,,,0.00,Wunderground v.1.15,2013-09-04 04:49:00,
2013-09-03 23:54:00,56.9,54.0,30.01,SW,222,1.0,2.0,90,0.00,,,0.00,Wunderground v.1.15,2013-09-04 04:54:00,